Main page
METAR-TAF:

METAR-TAF

Airports :

Belfast International Airport

Belfast, Northern Ireland

latitude: 54-39N, longitude: 006-13W, elevation: 81 m

Current weather observation

The report was made 25 minutes ago, at 13:20 UTC
Wind 6 kt from the Southeast, varying between East/Southeast and South
Temperature 21°C
Humidity 53%
Pressure 1023 hPa
Visibility 10 km or more
no clouds below 1500 m and no cumulonimbus

METAR: EGAA 241320Z 14006KT 110V190 CAVOK 21/11 Q1023

Time: 14:45 (13:45 UTC)

Forecast

The report was made 2 hours and 40 minutes ago, at 11:05 UTC
Forecast valid from 24 at 12 UTC to 25 at 12 UTC
Wind 7 kt from the East
Visibility 10 km or more
Few clouds at a height of 4000 ft
Becoming
from 24 at 19 UTC to 24 at 22 UTC
Wind 11 kt from the North
Probability 40% :
Temporary
from 25 at 02 UTC to 25 at 08 UTC
Visibility: 7000 m
Broken clouds at a height of 500 ft

TAF: EGAA 241105Z 2412/2512 10007KT 9999 FEW040 BECMG 2419/2422 35011KT PROB40 TEMPO 2502/2508 7000 BKN005

Weather observations and forecasts of more than 4000 airports (METAR and TAF reports).

The available stations are represented by yellow and red dots on the map.

Hover mouse over dot to see the name of the station.

Then click to see weather observations and forecasts.

To change the map : click on the green buttons with a black cross to zoom in, on the green button with a dash to zoom out, or on the green arrows for adjacent maps.


METAR-TAF: